sensor_id;sensor_type;location;lat;lon;timestamp;temperature;humidity
20345;DHT22;10330;48.816;9.278;2024-01-25T00:00:31;10.10;99.90
20345;DHT22;10330;48.816;9.278;2024-01-25T00:02:57;10.10;99.90
20345;DHT22;10330;48.816;9.278;2024-01-25T00:05:23;10.10;99.90
20345;DHT22;10330;48.816;9.278;2024-01-25T00:07:50;10.10;99.90
20345;DHT22;10330;48.816;9.278;2024-01-25T00:10:23;10.10;99.90
20345;DHT22;10330;48.816;9.278;2024-01-25T00:12:50;10.10;99.90
20345;DHT22;10330;48.816;9.278;2024-01-25T00:15:16;10.20;99.90
20345;DHT22;10330;48.816;9.278;2024-01-25T00:17:43;10.10;99.90
20345;DHT22;10330;48.816;9.278;2024-01-25T00:20:10;10.10;99.90
20345;DHT22;10330;48.816;9.278;2024-01-25T00:22:47;10.10;99.90
20345;DHT22;10330;48.816;9.278;2024-01-25T00:25:14;10.10;99.90
20345;DHT22;10330;48.816;9.278;2024-01-25T00:27:40;10.20;99.90
20345;DHT22;10330;48.816;9.278;2024-01-25T00:30:08;10.20;99.90
20345;DHT22;10330;48.816;9.278;2024-01-25T00:32:34;10.10;99.90
20345;DHT22;10330;48.816;9.278;2024-01-25T00:35:00;10.10;99.90
20345;DHT22;10330;48.816;9.278;2024-01-25T00:40:53;10.10;99.90
20345;DHT22;10330;48.816;9.278;2024-01-25T00:43:20;10.10;99.90
20345;DHT22;10330;48.816;9.278;2024-01-25T00:45:46;10.10;99.90
20345;DHT22;10330;48.816;9.278;2024-01-25T00:48:13;10.10;99.90
20345;DHT22;10330;48.816;9.278;2024-01-25T00:50:39;10.10;99.90
20345;DHT22;10330;48.816;9.278;2024-01-25T00:53:13;10.10;99.90
20345;DHT22;10330;48.816;9.278;2024-01-25T00:55:40;10.10;99.90
20345;DHT22;10330;48.816;9.278;2024-01-25T00:58:07;10.10;99.90
20345;DHT22;10330;48.816;9.278;2024-01-25T01:00:34;10.10;99.90
20345;DHT22;10330;48.816;9.278;2024-01-25T01:03:02;10.10;99.90
20345;DHT22;10330;48.816;9.278;2024-01-25T01:05:29;10.10;99.90
20345;DHT22;10330;48.816;9.278;2024-01-25T01:07:55;10.10;99.90
20345;DHT22;10330;48.816;9.278;2024-01-25T01:10:22;10.10;99.90
20345;DHT22;10330;48.816;9.278;2024-01-25T01:12:48;10.10;99.90
20345;DHT22;10330;48.816;9.278;2024-01-25T01:15:14;10.10;99.90
20345;DHT22;10330;48.816;9.278;2024-01-25T01:17:41;10.10;99.90
20345;DHT22;10330;48.816;9.278;2024-01-25T01:20:07;10.10;99.90
20345;DHT22;10330;48.816;9.278;2024-01-25T01:22:33;10.10;99.90
20345;DHT22;10330;48.816;9.278;2024-01-25T01:24:59;10.10;99.90
20345;DHT22;10330;48.816;9.278;2024-01-25T01:27:26;10.10;99.90
20345;DHT22;10330;48.816;9.278;2024-01-25T01:29:52;10.10;99.90
20345;DHT22;10330;48.816;9.278;2024-01-25T01:32:18;10.10;99.90
20345;DHT22;10330;48.816;9.278;2024-01-25T01:34:44;10.10;99.90
20345;DHT22;10330;48.816;9.278;2024-01-25T01:37:10;10.20;99.90
20345;DHT22;10330;48.816;9.278;2024-01-25T01:39:37;10.10;99.90
20345;DHT22;10330;48.816;9.278;2024-01-25T01:42:03;10.10;99.90
20345;DHT22;10330;48.816;9.278;2024-01-25T01:44:29;10.10;99.90
20345;DHT22;10330;48.816;9.278;2024-01-25T01:46:55;10.10;99.90
20345;DHT22;10330;48.816;9.278;2024-01-25T01:49:22;10.10;99.90
20345;DHT22;10330;48.816;9.278;2024-01-25T01:51:48;10.10;99.90
20345;DHT22;10330;48.816;9.278;2024-01-25T01:54:15;10.10;99.90
20345;DHT22;10330;48.816;9.278;2024-01-25T01:56:43;10.10;99.90
20345;DHT22;10330;48.816;9.278;2024-01-25T01:59:11;10.10;99.90
20345;DHT22;10330;48.816;9.278;2024-01-25T02:01:38;10.10;99.90
20345;DHT22;10330;48.816;9.278;2024-01-25T02:04:04;10.00;99.90
20345;DHT22;10330;48.816;9.278;2024-01-25T02:06:31;10.10;99.90
20345;DHT22;10330;48.816;9.278;2024-01-25T02:08:57;10.10;99.90
20345;DHT22;10330;48.816;9.278;2024-01-25T02:11:27;10.10;99.90
20345;DHT22;10330;48.816;9.278;2024-01-25T02:13:53;10.10;99.90
20345;DHT22;10330;48.816;9.278;2024-01-25T02:16:20;10.10;99.90
20345;DHT22;10330;48.816;9.278;2024-01-25T02:18:46;10.10;99.90
20345;DHT22;10330;48.816;9.278;2024-01-25T02:21:13;10.10;99.90
20345;DHT22;10330;48.816;9.278;2024-01-25T02:23:39;10.10;99.90
20345;DHT22;10330;48.816;9.278;2024-01-25T02:26:05;10.00;99.90
20345;DHT22;10330;48.816;9.278;2024-01-25T02:28:31;10.00;99.90
20345;DHT22;10330;48.816;9.278;2024-01-25T02:30:59;10.00;99.90
20345;DHT22;10330;48.816;9.278;2024-01-25T02:36:54;10.00;99.90
20345;DHT22;10330;48.816;9.278;2024-01-25T02:39:20;10.00;99.90
20345;DHT22;10330;48.816;9.278;2024-01-25T02:41:47;10.00;99.90
20345;DHT22;10330;48.816;9.278;2024-01-25T02:44:13;9.90;99.90
20345;DHT22;10330;48.816;9.278;2024-01-25T02:46:39;9.90;99.90
20345;DHT22;10330;48.816;9.278;2024-01-25T02:49:05;9.90;99.90
20345;DHT22;10330;48.816;9.278;2024-01-25T02:52:05;9.90;99.90
20345;DHT22;10330;48.816;9.278;2024-01-25T02:54:34;9.90;99.90
20345;DHT22;10330;48.816;9.278;2024-01-25T02:57:02;9.80;99.90
20345;DHT22;10330;48.816;9.278;2024-01-25T02:59:29;9.80;99.90
20345;DHT22;10330;48.816;9.278;2024-01-25T03:01:55;9.80;99.90
20345;DHT22;10330;48.816;9.278;2024-01-25T03:04:21;9.80;99.90
20345;DHT22;10330;48.816;9.278;2024-01-25T03:06:47;9.80;99.90
20345;DHT22;10330;48.816;9.278;2024-01-25T03:09:14;9.80;99.90
20345;DHT22;10330;48.816;9.278;2024-01-25T03:11:40;9.80;99.90
20345;DHT22;10330;48.816;9.278;2024-01-25T03:14:06;9.70;99.90
20345;DHT22;10330;48.816;9.278;2024-01-25T03:16:32;9.70;99.90
20345;DHT22;10330;48.816;9.278;2024-01-25T03:18:59;9.70;99.90
20345;DHT22;10330;48.816;9.278;2024-01-25T03:21:25;9.60;99.90
20345;DHT22;10330;48.816;9.278;2024-01-25T03:23:51;9.60;99.90
20345;DHT22;10330;48.816;9.278;2024-01-25T03:26:17;9.60;99.90
20345;DHT22;10330;48.816;9.278;2024-01-25T03:28:43;9.60;99.90
20345;DHT22;10330;48.816;9.278;2024-01-25T03:31:12;9.50;99.90
20345;DHT22;10330;48.816;9.278;2024-01-25T03:33:38;9.50;99.90
20345;DHT22;10330;48.816;9.278;2024-01-25T03:36:05;9.50;99.90
20345;DHT22;10330;48.816;9.278;2024-01-25T03:38:32;9.50;99.90
20345;DHT22;10330;48.816;9.278;2024-01-25T03:40:58;9.50;99.90
20345;DHT22;10330;48.816;9.278;2024-01-25T03:43:25;9.50;99.90
20345;DHT22;10330;48.816;9.278;2024-01-25T03:45:51;9.50;99.90
20345;DHT22;10330;48.816;9.278;2024-01-25T03:48:18;9.50;99.90
20345;DHT22;10330;48.816;9.278;2024-01-25T03:50:44;9.50;99.90
20345;DHT22;10330;48.816;9.278;2024-01-25T03:53:10;9.40;99.90
20345;DHT22;10330;48.816;9.278;2024-01-25T03:55:36;9.40;99.90
20345;DHT22;10330;48.816;9.278;2024-01-25T03:58:02;9.40;99.90
20345;DHT22;10330;48.816;9.278;2024-01-25T04:00:29;9.40;99.90
20345;DHT22;10330;48.816;9.278;2024-01-25T04:02:55;9.30;99.90
20345;DHT22;10330;48.816;9.278;2024-01-25T04:05:21;9.30;99.90
20345;DHT22;10330;48.816;9.278;2024-01-25T04:07:47;9.30;99.90
20345;DHT22;10330;48.816;9.278;2024-01-25T04:10:14;9.30;99.90
20345;DHT22;10330;48.816;9.278;2024-01-25T04:12:40;9.30;99.90
20345;DHT22;10330;48.816;9.278;2024-01-25T04:15:06;9.30;99.90
20345;DHT22;10330;48.816;9.278;2024-01-25T04:17:33;9.30;99.90
20345;DHT22;10330;48.816;9.278;2024-01-25T04:19:59;9.30;99.90
20345;DHT22;10330;48.816;9.278;2024-01-25T04:22:25;9.30;99.90
20345;DHT22;10330;48.816;9.278;2024-01-25T04:24:51;9.30;99.90
20345;DHT22;10330;48.816;9.278;2024-01-25T04:27:17;9.30;99.90
20345;DHT22;10330;48.816;9.278;2024-01-25T04:29:43;9.30;99.90
20345;DHT22;10330;48.816;9.278;2024-01-25T04:32:10;9.30;99.90
20345;DHT22;10330;48.816;9.278;2024-01-25T04:34:40;9.20;99.90
20345;DHT22;10330;48.816;9.278;2024-01-25T04:37:07;9.30;99.90
20345;DHT22;10330;48.816;9.278;2024-01-25T04:39:33;9.30;99.90
20345;DHT22;10330;48.816;9.278;2024-01-25T04:41:59;9.20;99.90
20345;DHT22;10330;48.816;9.278;2024-01-25T04:44:25;9.30;99.90
20345;DHT22;10330;48.816;9.278;2024-01-25T04:46:52;9.30;99.90
20345;DHT22;10330;48.816;9.278;2024-01-25T04:49:19;9.20;99.90
20345;DHT22;10330;48.816;9.278;2024-01-25T04:51:45;9.20;99.90
20345;DHT22;10330;48.816;9.278;2024-01-25T04:54:12;9.20;99.90
20345;DHT22;10330;48.816;9.278;2024-01-25T04:56:43;9.20;99.90
20345;DHT22;10330;48.816;9.278;2024-01-25T04:59:10;9.20;99.90
20345;DHT22;10330;48.816;9.278;2024-01-25T05:01:36;9.20;99.90
20345;DHT22;10330;48.816;9.278;2024-01-25T05:04:02;9.20;99.90
20345;DHT22;10330;48.816;9.278;2024-01-25T05:06:29;9.20;99.90
20345;DHT22;10330;48.816;9.278;2024-01-25T05:08:55;9.10;99.90
20345;DHT22;10330;48.816;9.278;2024-01-25T05:11:22;9.10;99.90
20345;DHT22;10330;48.816;9.278;2024-01-25T05:13:48;9.10;99.90
20345;DHT22;10330;48.816;9.278;2024-01-25T05:16:14;9.00;99.90
20345;DHT22;10330;48.816;9.278;2024-01-25T05:18:41;9.00;99.90
20345;DHT22;10330;48.816;9.278;2024-01-25T05:21:07;9.00;99.90
20345;DHT22;10330;48.816;9.278;2024-01-25T05:23:33;8.90;99.90
20345;DHT22;10330;48.816;9.278;2024-01-25T05:26:00;8.90;99.90
20345;DHT22;10330;48.816;9.278;2024-01-25T05:28:26;8.90;99.90
20345;DHT22;10330;48.816;9.278;2024-01-25T05:30:52;8.80;99.90
20345;DHT22;10330;48.816;9.278;2024-01-25T05:33:21;8.80;99.90
20345;DHT22;10330;48.816;9.278;2024-01-25T05:35:48;8.80;99.90
20345;DHT22;10330;48.816;9.278;2024-01-25T05:38:14;8.70;99.90
20345;DHT22;10330;48.816;9.278;2024-01-25T05:40:40;8.70;99.90
20345;DHT22;10330;48.816;9.278;2024-01-25T05:43:06;8.70;99.90
20345;DHT22;10330;48.816;9.278;2024-01-25T05:45:33;8.60;99.90
20345;DHT22;10330;48.816;9.278;2024-01-25T05:47:59;8.60;99.90
20345;DHT22;10330;48.816;9.278;2024-01-25T05:50:26;8.60;99.90
20345;DHT22;10330;48.816;9.278;2024-01-25T05:52:52;8.60;99.90
20345;DHT22;10330;48.816;9.278;2024-01-25T05:55:18;8.60;99.90
20345;DHT22;10330;48.816;9.278;2024-01-25T05:57:44;8.50;99.90
20345;DHT22;10330;48.816;9.278;2024-01-25T06:00:12;8.50;99.90
20345;DHT22;10330;48.816;9.278;2024-01-25T06:02:39;8.50;99.90
20345;DHT22;10330;48.816;9.278;2024-01-25T06:05:06;8.60;99.90
20345;DHT22;10330;48.816;9.278;2024-01-25T06:07:32;8.70;99.90
20345;DHT22;10330;48.816;9.278;2024-01-25T06:10:01;8.50;99.90
20345;DHT22;10330;48.816;9.278;2024-01-25T06:12:31;8.40;99.90
20345;DHT22;10330;48.816;9.278;2024-01-25T06:14:59;8.40;99.90
20345;DHT22;10330;48.816;9.278;2024-01-25T06:17:25;8.30;99.90
20345;DHT22;10330;48.816;9.278;2024-01-25T06:19:51;8.20;99.90
20345;DHT22;10330;48.816;9.278;2024-01-25T06:22:18;8.20;99.90
20345;DHT22;10330;48.816;9.278;2024-01-25T06:24:44;8.10;99.90
20345;DHT22;10330;48.816;9.278;2024-01-25T06:27:10;8.10;99.90
20345;DHT22;10330;48.816;9.278;2024-01-25T06:29:37;8.10;99.90
20345;DHT22;10330;48.816;9.278;2024-01-25T06:32:03;8.10;99.90
20345;DHT22;10330;48.816;9.278;2024-01-25T06:34:29;8.10;99.90
20345;DHT22;10330;48.816;9.278;2024-01-25T06:36:56;8.00;99.90
20345;DHT22;10330;48.816;9.278;2024-01-25T06:39:22;8.00;99.90
20345;DHT22;10330;48.816;9.278;2024-01-25T06:41:48;7.90;99.90
20345;DHT22;10330;48.816;9.278;2024-01-25T06:44:20;7.90;99.90
20345;DHT22;10330;48.816;9.278;2024-01-25T06:46:46;7.90;99.90
20345;DHT22;10330;48.816;9.278;2024-01-25T06:49:12;7.90;99.90
20345;DHT22;10330;48.816;9.278;2024-01-25T06:51:38;7.90;99.90
20345;DHT22;10330;48.816;9.278;2024-01-25T06:54:04;7.90;99.90
20345;DHT22;10330;48.816;9.278;2024-01-25T06:56:31;7.80;99.90
20345;DHT22;10330;48.816;9.278;2024-01-25T06:58:57;7.80;99.90
20345;DHT22;10330;48.816;9.278;2024-01-25T07:01:24;7.80;99.90
20345;DHT22;10330;48.816;9.278;2024-01-25T07:03:50;7.80;99.90
20345;DHT22;10330;48.816;9.278;2024-01-25T07:06:17;7.80;99.90
20345;DHT22;10330;48.816;9.278;2024-01-25T07:08:45;7.70;99.90
20345;DHT22;10330;48.816;9.278;2024-01-25T07:11:11;7.80;99.90
20345;DHT22;10330;48.816;9.278;2024-01-25T07:13:38;7.70;99.90
20345;DHT22;10330;48.816;9.278;2024-01-25T07:16:05;7.70;99.90
20345;DHT22;10330;48.816;9.278;2024-01-25T07:18:31;7.70;99.90
20345;DHT22;10330;48.816;9.278;2024-01-25T07:20:57;7.70;99.90
20345;DHT22;10330;48.816;9.278;2024-01-25T07:23:23;7.70;99.90
20345;DHT22;10330;48.816;9.278;2024-01-25T07:25:50;7.70;99.90
20345;DHT22;10330;48.816;9.278;2024-01-25T07:28:19;7.60;99.90
20345;DHT22;10330;48.816;9.278;2024-01-25T07:30:47;7.70;99.90
20345;DHT22;10330;48.816;9.278;2024-01-25T07:33:13;7.60;99.90
20345;DHT22;10330;48.816;9.278;2024-01-25T07:35:40;7.60;99.90
20345;DHT22;10330;48.816;9.278;2024-01-25T07:38:12;7.70;99.90
20345;DHT22;10330;48.816;9.278;2024-01-25T07:40:38;7.70;99.90
20345;DHT22;10330;48.816;9.278;2024-01-25T07:43:04;7.70;99.90
20345;DHT22;10330;48.816;9.278;2024-01-25T07:45:31;7.70;99.90
20345;DHT22;10330;48.816;9.278;2024-01-25T07:47:58;7.70;99.90
20345;DHT22;10330;48.816;9.278;2024-01-25T07:50:25;7.80;99.90
20345;DHT22;10330;48.816;9.278;2024-01-25T07:52:51;7.80;99.90
20345;DHT22;10330;48.816;9.278;2024-01-25T07:55:17;7.80;99.90
20345;DHT22;10330;48.816;9.278;2024-01-25T07:58:01;7.80;99.90
20345;DHT22;10330;48.816;9.278;2024-01-25T08:00:27;7.90;99.90
20345;DHT22;10330;48.816;9.278;2024-01-25T08:02:53;7.90;99.90
20345;DHT22;10330;48.816;9.278;2024-01-25T08:05:20;7.90;99.90
20345;DHT22;10330;48.816;9.278;2024-01-25T08:07:46;8.00;99.90
20345;DHT22;10330;48.816;9.278;2024-01-25T08:10:13;8.00;99.90
20345;DHT22;10330;48.816;9.278;2024-01-25T08:12:39;8.00;99.90
20345;DHT22;10330;48.816;9.278;2024-01-25T08:15:06;8.10;99.90
20345;DHT22;10330;48.816;9.278;2024-01-25T08:17:32;8.10;99.90
20345;DHT22;10330;48.816;9.278;2024-01-25T08:19:59;8.10;99.90
20345;DHT22;10330;48.816;9.278;2024-01-25T08:22:25;8.10;99.90
20345;DHT22;10330;48.816;9.278;2024-01-25T08:24:51;8.10;99.90
20345;DHT22;10330;48.816;9.278;2024-01-25T08:27:18;8.10;99.90
20345;DHT22;10330;48.816;9.278;2024-01-25T08:29:45;8.20;99.90
20345;DHT22;10330;48.816;9.278;2024-01-25T08:32:11;8.20;99.90
20345;DHT22;10330;48.816;9.278;2024-01-25T08:34:37;8.20;99.90
20345;DHT22;10330;48.816;9.278;2024-01-25T08:37:03;8.30;99.90
20345;DHT22;10330;48.816;9.278;2024-01-25T08:39:30;8.30;99.90
20345;DHT22;10330;48.816;9.278;2024-01-25T08:41:56;8.40;99.90
20345;DHT22;10330;48.816;9.278;2024-01-25T08:44:26;8.40;99.90
20345;DHT22;10330;48.816;9.278;2024-01-25T08:46:55;8.50;99.90
20345;DHT22;10330;48.816;9.278;2024-01-25T08:49:22;8.50;99.90
20345;DHT22;10330;48.816;9.278;2024-01-25T08:51:48;8.60;99.90
20345;DHT22;10330;48.816;9.278;2024-01-25T08:54:14;8.60;99.90
20345;DHT22;10330;48.816;9.278;2024-01-25T08:56:41;8.60;99.90
20345;DHT22;10330;48.816;9.278;2024-01-25T08:59:07;8.70;99.90
20345;DHT22;10330;48.816;9.278;2024-01-25T09:01:33;8.70;99.90
20345;DHT22;10330;48.816;9.278;2024-01-25T09:03:59;8.70;99.90
20345;DHT22;10330;48.816;9.278;2024-01-25T09:06:29;8.60;99.90
20345;DHT22;10330;48.816;9.278;2024-01-25T09:08:56;8.70;99.90
20345;DHT22;10330;48.816;9.278;2024-01-25T09:11:22;8.70;99.90
20345;DHT22;10330;48.816;9.278;2024-01-25T09:13:48;8.80;99.90
20345;DHT22;10330;48.816;9.278;2024-01-25T09:16:16;8.90;99.90
20345;DHT22;10330;48.816;9.278;2024-01-25T09:18:42;8.90;99.90
20345;DHT22;10330;48.816;9.278;2024-01-25T09:21:08;9.00;99.90
20345;DHT22;10330;48.816;9.278;2024-01-25T09:23:34;9.00;99.90
20345;DHT22;10330;48.816;9.278;2024-01-25T09:26:00;9.00;99.90
20345;DHT22;10330;48.816;9.278;2024-01-25T09:28:27;9.10;99.90
20345;DHT22;10330;48.816;9.278;2024-01-25T09:30:53;9.10;99.90
20345;DHT22;10330;48.816;9.278;2024-01-25T09:33:19;9.10;99.90
20345;DHT22;10330;48.816;9.278;2024-01-25T09:35:45;9.20;99.90
20345;DHT22;10330;48.816;9.278;2024-01-25T09:38:13;9.30;99.90
20345;DHT22;10330;48.816;9.278;2024-01-25T09:40:39;9.30;99.90
20345;DHT22;10330;48.816;9.278;2024-01-25T09:43:07;9.40;99.90
20345;DHT22;10330;48.816;9.278;2024-01-25T09:45:34;9.50;99.90
20345;DHT22;10330;48.816;9.278;2024-01-25T09:48:00;9.60;99.90
20345;DHT22;10330;48.816;9.278;2024-01-25T09:50:31;9.70;99.90
20345;DHT22;10330;48.816;9.278;2024-01-25T09:53:00;9.70;99.90
20345;DHT22;10330;48.816;9.278;2024-01-25T09:55:27;9.80;99.90
20345;DHT22;10330;48.816;9.278;2024-01-25T09:57:54;9.90;99.90
20345;DHT22;10330;48.816;9.278;2024-01-25T10:00:22;10.00;99.90
20345;DHT22;10330;48.816;9.278;2024-01-25T10:02:49;10.20;99.90
20345;DHT22;10330;48.816;9.278;2024-01-25T10:05:16;10.00;99.90
20345;DHT22;10330;48.816;9.278;2024-01-25T10:07:44;9.90;99.90
20345;DHT22;10330;48.816;9.278;2024-01-25T10:10:12;9.80;99.90
20345;DHT22;10330;48.816;9.278;2024-01-25T10:12:40;9.70;99.90
20345;DHT22;10330;48.816;9.278;2024-01-25T10:15:07;9.70;99.90
20345;DHT22;10330;48.816;9.278;2024-01-25T10:17:34;9.80;99.90
20345;DHT22;10330;48.816;9.278;2024-01-25T10:20:01;9.90;99.90
20345;DHT22;10330;48.816;9.278;2024-01-25T10:22:27;9.90;99.90
20345;DHT22;10330;48.816;9.278;2024-01-25T10:24:53;10.00;99.90
20345;DHT22;10330;48.816;9.278;2024-01-25T10:27:21;9.90;99.90
20345;DHT22;10330;48.816;9.278;2024-01-25T10:29:47;10.00;99.90
20345;DHT22;10330;48.816;9.278;2024-01-25T10:32:14;10.20;99.90
20345;DHT22;10330;48.816;9.278;2024-01-25T10:34:41;10.30;99.90
20345;DHT22;10330;48.816;9.278;2024-01-25T10:37:08;10.40;99.90
20345;DHT22;10330;48.816;9.278;2024-01-25T10:39:35;10.50;99.90
20345;DHT22;10330;48.816;9.278;2024-01-25T10:42:01;10.40;99.90
20345;DHT22;10330;48.816;9.278;2024-01-25T10:44:28;10.50;99.90
20345;DHT22;10330;48.816;9.278;2024-01-25T10:46:58;10.50;99.90
20345;DHT22;10330;48.816;9.278;2024-01-25T10:49:24;10.70;99.90
20345;DHT22;10330;48.816;9.278;2024-01-25T10:51:52;10.60;99.90
20345;DHT22;10330;48.816;9.278;2024-01-25T10:54:19;10.90;99.90
20345;DHT22;10330;48.816;9.278;2024-01-25T10:56:46;11.30;99.90
20345;DHT22;10330;48.816;9.278;2024-01-25T10:59:16;11.50;99.90
20345;DHT22;10330;48.816;9.278;2024-01-25T11:01:46;11.60;99.90
20345;DHT22;10330;48.816;9.278;2024-01-25T11:04:16;12.40;99.90
20345;DHT22;10330;48.816;9.278;2024-01-25T11:06:44;12.60;99.90
20345;DHT22;10330;48.816;9.278;2024-01-25T11:09:18;12.10;99.90
20345;DHT22;10330;48.816;9.278;2024-01-25T11:11:47;11.90;99.90
20345;DHT22;10330;48.816;9.278;2024-01-25T11:14:15;12.00;99.90
20345;DHT22;10330;48.816;9.278;2024-01-25T11:16:43;12.10;99.90
20345;DHT22;10330;48.816;9.278;2024-01-25T11:19:22;12.10;99.90
20345;DHT22;10330;48.816;9.278;2024-01-25T11:21:54;12.70;99.90
20345;DHT22;10330;48.816;9.278;2024-01-25T11:24:23;13.00;99.90
20345;DHT22;10330;48.816;9.278;2024-01-25T11:26:50;12.60;99.90
20345;DHT22;10330;48.816;9.278;2024-01-25T11:29:19;12.00;99.90
20345;DHT22;10330;48.816;9.278;2024-01-25T11:31:48;12.50;99.90
20345;DHT22;10330;48.816;9.278;2024-01-25T11:34:15;12.50;99.90
20345;DHT22;10330;48.816;9.278;2024-01-25T11:36:45;12.30;99.90
20345;DHT22;10330;48.816;9.278;2024-01-25T11:39:14;12.90;99.90
20345;DHT22;10330;48.816;9.278;2024-01-25T11:41:43;13.10;99.90
20345;DHT22;10330;48.816;9.278;2024-01-25T11:44:10;13.60;99.90
20345;DHT22;10330;48.816;9.278;2024-01-25T11:46:44;13.60;99.90
20345;DHT22;10330;48.816;9.278;2024-01-25T11:49:11;13.30;99.90
20345;DHT22;10330;48.816;9.278;2024-01-25T11:54:52;13.00;99.90
20345;DHT22;10330;48.816;9.278;2024-01-25T11:57:20;13.00;99.90
20345;DHT22;10330;48.816;9.278;2024-01-25T11:59:47;12.60;99.90
20345;DHT22;10330;48.816;9.278;2024-01-25T12:02:13;13.10;99.90
20345;DHT22;10330;48.816;9.278;2024-01-25T12:04:40;13.20;99.90
20345;DHT22;10330;48.816;9.278;2024-01-25T12:07:07;13.20;99.90
20345;DHT22;10330;48.816;9.278;2024-01-25T12:09:33;14.00;99.90
20345;DHT22;10330;48.816;9.278;2024-01-25T12:12:02;14.70;99.90
20345;DHT22;10330;48.816;9.278;2024-01-25T12:14:30;14.90;99.90
20345;DHT22;10330;48.816;9.278;2024-01-25T12:16:56;15.40;99.90
20345;DHT22;10330;48.816;9.278;2024-01-25T12:19:22;15.20;99.90
20345;DHT22;10330;48.816;9.278;2024-01-25T12:21:48;15.40;99.90
20345;DHT22;10330;48.816;9.278;2024-01-25T12:24:15;16.20;99.90
20345;DHT22;10330;48.816;9.278;2024-01-25T12:26:42;16.60;99.90
20345;DHT22;10330;48.816;9.278;2024-01-25T12:29:08;16.90;99.90
20345;DHT22;10330;48.816;9.278;2024-01-25T12:31:36;16.70;99.90
20345;DHT22;10330;48.816;9.278;2024-01-25T12:34:02;15.00;99.90
20345;DHT22;10330;48.816;9.278;2024-01-25T12:36:29;15.60;99.90
20345;DHT22;10330;48.816;9.278;2024-01-25T12:38:55;16.30;99.90
20345;DHT22;10330;48.816;9.278;2024-01-25T12:41:21;16.30;99.90
20345;DHT22;10330;48.816;9.278;2024-01-25T12:43:47;16.50;99.90
20345;DHT22;10330;48.816;9.278;2024-01-25T12:46:14;16.80;99.90
20345;DHT22;10330;48.816;9.278;2024-01-25T12:48:40;16.80;99.90
20345;DHT22;10330;48.816;9.278;2024-01-25T12:51:06;16.50;99.90
20345;DHT22;10330;48.816;9.278;2024-01-25T12:53:32;16.10;99.90
20345;DHT22;10330;48.816;9.278;2024-01-25T12:55:58;15.60;99.90
20345;DHT22;10330;48.816;9.278;2024-01-25T12:58:25;14.90;99.90
20345;DHT22;10330;48.816;9.278;2024-01-25T13:00:51;15.70;99.90
20345;DHT22;10330;48.816;9.278;2024-01-25T13:03:17;16.20;99.90
20345;DHT22;10330;48.816;9.278;2024-01-25T13:05:43;16.50;99.90
20345;DHT22;10330;48.816;9.278;2024-01-25T13:08:09;16.00;99.90
20345;DHT22;10330;48.816;9.278;2024-01-25T13:10:36;16.70;99.90
20345;DHT22;10330;48.816;9.278;2024-01-25T13:13:02;15.90;99.90
20345;DHT22;10330;48.816;9.278;2024-01-25T13:15:29;16.80;99.90
20345;DHT22;10330;48.816;9.278;2024-01-25T13:17:55;17.20;99.90
20345;DHT22;10330;48.816;9.278;2024-01-25T13:20:22;17.30;99.90
20345;DHT22;10330;48.816;9.278;2024-01-25T13:22:48;17.60;99.90
20345;DHT22;10330;48.816;9.278;2024-01-25T13:25:14;16.80;99.90
20345;DHT22;10330;48.816;9.278;2024-01-25T13:27:41;17.30;99.90
20345;DHT22;10330;48.816;9.278;2024-01-25T13:30:07;16.90;99.90
20345;DHT22;10330;48.816;9.278;2024-01-25T13:32:37;17.30;99.90
20345;DHT22;10330;48.816;9.278;2024-01-25T13:35:03;17.60;99.90
20345;DHT22;10330;48.816;9.278;2024-01-25T13:37:30;17.40;99.90
20345;DHT22;10330;48.816;9.278;2024-01-25T13:39:56;17.70;99.90
20345;DHT22;10330;48.816;9.278;2024-01-25T13:42:23;17.60;99.90
20345;DHT22;10330;48.816;9.278;2024-01-25T13:44:49;17.10;99.90
20345;DHT22;10330;48.816;9.278;2024-01-25T13:47:15;17.30;99.90
20345;DHT22;10330;48.816;9.278;2024-01-25T13:49:41;17.60;99.90
20345;DHT22;10330;48.816;9.278;2024-01-25T13:52:19;17.70;99.90
20345;DHT22;10330;48.816;9.278;2024-01-25T13:54:46;17.80;99.90
20345;DHT22;10330;48.816;9.278;2024-01-25T13:57:15;17.70;99.90
20345;DHT22;10330;48.816;9.278;2024-01-25T13:59:42;17.40;99.90
20345;DHT22;10330;48.816;9.278;2024-01-25T14:02:08;17.50;99.90
20345;DHT22;10330;48.816;9.278;2024-01-25T14:04:34;17.00;99.90
20345;DHT22;10330;48.816;9.278;2024-01-25T14:07:01;16.50;99.90
20345;DHT22;10330;48.816;9.278;2024-01-25T14:09:28;16.40;99.90
20345;DHT22;10330;48.816;9.278;2024-01-25T14:11:55;16.10;99.90
20345;DHT22;10330;48.816;9.278;2024-01-25T14:14:21;16.20;99.90
20345;DHT22;10330;48.816;9.278;2024-01-25T14:16:48;16.30;99.90
20345;DHT22;10330;48.816;9.278;2024-01-25T14:19:14;16.30;99.90
20345;DHT22;10330;48.816;9.278;2024-01-25T14:21:40;16.30;99.90
20345;DHT22;10330;48.816;9.278;2024-01-25T14:24:06;16.00;99.90
20345;DHT22;10330;48.816;9.278;2024-01-25T14:26:32;16.20;99.90
20345;DHT22;10330;48.816;9.278;2024-01-25T14:28:58;16.20;99.90
20345;DHT22;10330;48.816;9.278;2024-01-25T14:31:25;16.10;99.90
20345;DHT22;10330;48.816;9.278;2024-01-25T14:33:51;16.00;99.90
20345;DHT22;10330;48.816;9.278;2024-01-25T14:36:17;15.90;99.90
20345;DHT22;10330;48.816;9.278;2024-01-25T14:38:44;15.80;99.90
20345;DHT22;10330;48.816;9.278;2024-01-25T14:41:10;15.60;99.90
20345;DHT22;10330;48.816;9.278;2024-01-25T14:43:39;15.40;99.90
20345;DHT22;10330;48.816;9.278;2024-01-25T14:46:07;15.30;99.90
20345;DHT22;10330;48.816;9.278;2024-01-25T14:48:33;14.90;99.90
20345;DHT22;10330;48.816;9.278;2024-01-25T14:51:00;14.50;99.90
20345;DHT22;10330;48.816;9.278;2024-01-25T14:53:26;14.10;99.90
20345;DHT22;10330;48.816;9.278;2024-01-25T14:55:52;13.90;99.90
20345;DHT22;10330;48.816;9.278;2024-01-25T14:58:18;13.70;99.90
20345;DHT22;10330;48.816;9.278;2024-01-25T15:00:51;13.40;99.90
20345;DHT22;10330;48.816;9.278;2024-01-25T15:03:18;13.30;99.90
20345;DHT22;10330;48.816;9.278;2024-01-25T15:05:45;13.10;99.90
20345;DHT22;10330;48.816;9.278;2024-01-25T15:08:11;12.90;99.90
20345;DHT22;10330;48.816;9.278;2024-01-25T15:10:38;12.80;99.90
20345;DHT22;10330;48.816;9.278;2024-01-25T15:13:04;12.70;99.90
20345;DHT22;10330;48.816;9.278;2024-01-25T15:15:30;12.60;99.90
20345;DHT22;10330;48.816;9.278;2024-01-25T15:17:57;12.50;99.90
20345;DHT22;10330;48.816;9.278;2024-01-25T15:20:23;12.30;99.90
20345;DHT22;10330;48.816;9.278;2024-01-25T15:22:50;12.20;99.90
20345;DHT22;10330;48.816;9.278;2024-01-25T15:25:17;12.10;99.90
20345;DHT22;10330;48.816;9.278;2024-01-25T15:27:43;12.00;99.90
20345;DHT22;10330;48.816;9.278;2024-01-25T15:30:10;11.90;99.90
20345;DHT22;10330;48.816;9.278;2024-01-25T15:32:37;11.90;99.90
20345;DHT22;10330;48.816;9.278;2024-01-25T15:35:04;11.80;99.90
20345;DHT22;10330;48.816;9.278;2024-01-25T15:37:30;11.60;99.90
20345;DHT22;10330;48.816;9.278;2024-01-25T15:39:57;11.60;99.90
20345;DHT22;10330;48.816;9.278;2024-01-25T15:42:23;11.60;99.90
20345;DHT22;10330;48.816;9.278;2024-01-25T15:44:53;11.50;99.90